createdAt,value
2018-12-16T00:01:32.099Z,15.53
2018-12-16T00:03:59.898Z,14.90
2018-12-16T00:06:27.651Z,16.00
2018-12-16T00:08:55.426Z,14.80
2018-12-16T00:11:23.217Z,15.53
2018-12-16T00:13:50.936Z,15.10
2018-12-16T00:16:18.661Z,15.43
2018-12-16T00:18:47.109Z,16.20
2018-12-16T00:21:14.856Z,16.40
2018-12-16T00:23:42.687Z,15.50
2018-12-16T00:26:10.458Z,16.03
2018-12-16T00:28:38.213Z,15.10
2018-12-16T00:31:05.970Z,15.83
2018-12-16T00:33:33.712Z,15.77
2018-12-16T00:36:01.478Z,15.97
2018-12-16T00:38:29.255Z,16.30
2018-12-16T00:40:57.050Z,16.23
2018-12-16T00:43:24.817Z,15.03
2018-12-16T00:45:52.589Z,14.47
2018-12-16T00:48:20.353Z,15.33
2018-12-16T00:50:48.157Z,14.90
2018-12-16T00:53:15.933Z,15.23
2018-12-16T00:55:43.759Z,15.47
2018-12-16T00:58:11.507Z,15.20
2018-12-16T01:00:39.765Z,14.90
2018-12-16T01:03:07.509Z,15.00
2018-12-16T01:05:35.273Z,15.10
2018-12-16T01:08:03.099Z,14.87
2018-12-16T01:10:31.801Z,15.33
2018-12-16T01:12:59.604Z,15.30
2018-12-16T01:15:27.358Z,15.90
2018-12-16T01:17:55.181Z,16.17
2018-12-16T01:20:24.044Z,15.30
2018-12-16T01:22:51.841Z,15.83
2018-12-16T01:25:19.639Z,16.37
2018-12-16T01:27:47.387Z,15.17
2018-12-16T01:30:15.177Z,16.00
2018-12-16T01:32:42.916Z,15.97
2018-12-16T01:35:10.713Z,15.23
2018-12-16T01:37:38.488Z,15.77
2018-12-16T01:40:06.904Z,15.77
2018-12-16T01:42:34.691Z,16.13
2018-12-16T01:45:02.583Z,15.17
2018-12-16T01:47:30.308Z,13.67
2018-12-16T01:49:58.103Z,15.70
2018-12-16T01:52:25.944Z,15.57
2018-12-16T01:54:53.643Z,15.67
2018-12-16T01:57:21.429Z,15.53
2018-12-16T01:59:49.256Z,15.20
2018-12-16T02:02:16.984Z,13.90
2018-12-16T02:04:44.802Z,14.43
2018-12-16T02:07:12.613Z,14.77
2018-12-16T02:09:40.528Z,15.53
2018-12-16T02:12:08.301Z,15.67
2018-12-16T02:14:36.134Z,14.70
2018-12-16T02:17:03.931Z,14.27
2018-12-16T02:19:31.704Z,15.40
2018-12-16T02:21:59.448Z,14.20
2018-12-16T02:24:27.195Z,16.07
2018-12-16T02:26:54.981Z,14.57
2018-12-16T02:29:22.692Z,14.60
2018-12-16T02:31:50.446Z,15.90
2018-12-16T02:34:18.181Z,14.53
2018-12-16T02:36:46.633Z,15.33
2018-12-16T02:39:14.518Z,14.93
2018-12-16T02:41:42.285Z,14.90
2018-12-16T02:44:10.031Z,14.50
2018-12-16T02:46:37.818Z,14.13
2018-12-16T02:49:05.614Z,15.47
2018-12-16T02:51:33.421Z,14.77
2018-12-16T02:54:01.788Z,15.67
2018-12-16T02:56:29.970Z,15.63
2018-12-16T02:58:57.732Z,14.67
2018-12-16T03:01:25.648Z,15.50
2018-12-16T03:03:53.439Z,15.77
2018-12-16T03:06:21.245Z,15.17
2018-12-16T03:08:49.939Z,15.10
2018-12-16T03:11:17.735Z,15.53
2018-12-16T03:13:45.494Z,15.43
2018-12-16T03:16:13.257Z,15.13
2018-12-16T03:18:41.065Z,14.83
2018-12-16T03:21:08.802Z,14.93
2018-12-16T03:23:36.563Z,14.47
2018-12-16T03:26:04.417Z,15.40
2018-12-16T03:28:32.214Z,15.23
2018-12-16T03:31:00.753Z,13.77
2018-12-16T03:33:28.522Z,14.37
2018-12-16T03:35:56.263Z,15.37
2018-12-16T03:38:24.036Z,15.47
2018-12-16T03:40:51.883Z,14.17
2018-12-16T03:43:19.690Z,15.13
2018-12-16T03:45:47.450Z,14.97
2018-12-16T03:48:15.754Z,15.33
2018-12-16T03:50:43.505Z,15.83
2018-12-16T03:53:11.317Z,16.53
2018-12-16T03:55:39.056Z,16.43
2018-12-16T03:58:06.848Z,15.33
2018-12-16T04:00:34.990Z,15.40
2018-12-16T04:03:03.463Z,15.83
2018-12-16T04:05:31.319Z,16.03
2018-12-16T04:07:59.033Z,17.57
2018-12-16T04:10:26.799Z,16.83
2018-12-16T04:12:54.539Z,17.53
2018-12-16T04:15:22.296Z,17.10
2018-12-16T04:17:50.061Z,16.83
2018-12-16T04:20:17.830Z,18.17
2018-12-16T04:22:45.623Z,17.63
2018-12-16T04:25:13.460Z,18.83
2018-12-16T04:27:41.220Z,17.80
2018-12-16T04:30:09.140Z,17.40
2018-12-16T04:32:36.887Z,18.33
2018-12-16T04:35:05.379Z,17.97
2018-12-16T04:37:33.218Z,17.67
2018-12-16T04:40:01.059Z,17.43
2018-12-16T04:42:28.904Z,18.73
2018-12-16T04:44:56.662Z,16.67
2018-12-16T04:47:24.400Z,18.00
2018-12-16T04:49:52.233Z,19.37
2018-12-16T04:52:20.020Z,18.53
2018-12-16T04:54:47.859Z,18.87
2018-12-16T04:57:15.639Z,18.33
2018-12-16T04:59:43.392Z,19.43
2018-12-16T05:02:11.195Z,18.57
2018-12-16T05:04:39.000Z,18.20
2018-12-16T05:07:06.728Z,18.33
2018-12-16T05:09:34.684Z,18.40
2018-12-16T05:12:02.456Z,18.93
2018-12-16T05:14:30.491Z,19.83
2018-12-16T05:16:58.321Z,17.73
2018-12-16T05:19:26.129Z,19.03
2018-12-16T05:21:53.872Z,18.33
2018-12-16T05:24:21.633Z,18.93
2018-12-16T05:26:49.420Z,17.07
2018-12-16T05:29:17.229Z,19.37
2018-12-16T05:31:44.994Z,18.70
2018-12-16T05:34:12.798Z,18.03
2018-12-16T05:36:40.768Z,20.03
2018-12-16T05:39:23.325Z,18.10
2018-12-16T05:41:51.096Z,18.87
2018-12-16T05:44:18.953Z,18.50
2018-12-16T05:46:46.800Z,18.27
2018-12-16T05:49:14.538Z,17.47
2018-12-16T05:51:42.275Z,18.10
2018-12-16T05:54:10.030Z,18.13
2018-12-16T05:56:37.788Z,18.53
2018-12-16T05:59:05.612Z,18.30
2018-12-16T06:01:34.381Z,17.27
2018-12-16T06:04:02.109Z,17.40
2018-12-16T06:06:29.893Z,18.20
2018-12-16T06:08:57.690Z,19.10
2018-12-16T06:11:25.474Z,18.50
2018-12-16T06:13:53.355Z,19.83
2018-12-16T06:16:21.124Z,17.37
2018-12-16T06:18:48.951Z,18.43
2018-12-16T06:21:17.801Z,18.70
2018-12-16T06:23:45.549Z,17.63
2018-12-16T06:26:13.555Z,16.87
2018-12-16T06:28:41.657Z,18.40
2018-12-16T06:31:09.403Z,18.83
2018-12-16T06:33:37.714Z,18.20
2018-12-16T06:36:05.462Z,16.90
2018-12-16T06:38:34.681Z,17.47
2018-12-16T06:41:02.493Z,18.07
2018-12-16T06:43:30.270Z,18.07
2018-12-16T06:45:58.062Z,17.10
2018-12-16T06:48:25.849Z,17.10
2018-12-16T06:50:53.806Z,18.63
2018-12-16T06:53:21.760Z,18.30
2018-12-16T06:55:49.570Z,19.50
2018-12-16T06:58:17.309Z,18.47
2018-12-16T07:00:45.127Z,18.77
2018-12-16T07:03:12.929Z,18.77
2018-12-16T07:05:40.838Z,17.80
2018-12-16T07:08:08.631Z,17.53
2018-12-16T07:10:36.524Z,18.43
2018-12-16T07:13:04.389Z,18.87
2018-12-16T07:15:32.436Z,18.83
2018-12-16T07:18:00.375Z,18.70
2018-12-16T07:20:28.543Z,17.03
2018-12-16T07:22:56.453Z,17.60
2018-12-16T07:25:24.274Z,18.97
2018-12-16T07:27:52.041Z,18.90
2018-12-16T07:30:19.822Z,18.70
2018-12-16T07:32:47.652Z,18.67
2018-12-16T07:35:15.678Z,17.77
2018-12-16T07:37:43.489Z,18.03
2018-12-16T07:40:11.270Z,17.73
2018-12-16T07:42:39.130Z,18.33
2018-12-16T07:45:07.623Z,17.93
2018-12-16T07:47:35.416Z,17.77
2018-12-16T07:50:03.549Z,19.30
2018-12-16T07:52:31.336Z,18.40
2018-12-16T07:54:59.125Z,18.20
2018-12-16T07:57:26.914Z,18.20
2018-12-16T07:59:54.644Z,19.40
2018-12-16T08:02:22.640Z,18.63
2018-12-16T08:04:50.670Z,19.90
2018-12-16T08:07:18.401Z,18.80
2018-12-16T08:09:46.716Z,20.73
2018-12-16T08:12:14.540Z,20.27
2018-12-16T08:14:42.333Z,17.77
2018-12-16T08:17:10.185Z,19.07
2018-12-16T08:19:37.966Z,20.53
2018-12-16T08:22:05.783Z,20.13
2018-12-16T08:24:33.597Z,20.63
2018-12-16T08:27:01.929Z,19.93
2018-12-16T08:29:29.862Z,20.27
2018-12-16T08:31:59.958Z,19.37
2018-12-16T08:34:27.753Z,19.77
2018-12-16T08:36:55.489Z,19.67
2018-12-16T08:39:23.247Z,21.03
2018-12-16T08:41:51.093Z,20.23
2018-12-16T08:44:18.976Z,19.70
2018-12-16T08:46:47.593Z,18.97
2018-12-16T08:49:15.344Z,19.37
2018-12-16T08:51:43.130Z,21.20
2018-12-16T08:54:10.986Z,21.13
2018-12-16T08:56:38.798Z,20.37
2018-12-16T08:59:06.574Z,20.47
2018-12-16T09:01:34.301Z,19.87
2018-12-16T09:04:02.150Z,20.67
2018-12-16T09:06:30.041Z,20.47
2018-12-16T09:08:58.296Z,19.63
2018-12-16T09:11:26.064Z,19.70
2018-12-16T09:13:53.953Z,20.40
2018-12-16T09:16:21.761Z,20.03
2018-12-16T09:18:49.496Z,21.00
2018-12-16T09:21:17.518Z,19.20
2018-12-16T09:23:45.288Z,20.90
2018-12-16T09:26:13.118Z,19.57
2018-12-16T09:28:40.918Z,19.63
2018-12-16T09:31:09.570Z,20.20
2018-12-16T09:33:38.226Z,18.67
2018-12-16T09:36:06.038Z,19.63
2018-12-16T09:38:33.852Z,20.33
2018-12-16T09:41:01.667Z,20.23
2018-12-16T09:43:29.456Z,20.23
2018-12-16T09:45:57.246Z,19.20
2018-12-16T09:48:25.053Z,20.27
2018-12-16T09:50:52.887Z,20.17
2018-12-16T09:53:20.699Z,19.53
2018-12-16T09:55:48.516Z,20.47
2018-12-16T09:58:16.319Z,19.97
2018-12-16T10:00:44.058Z,20.33
2018-12-16T10:03:13.884Z,18.87
2018-12-16T10:05:41.616Z,20.50
2018-12-16T10:08:09.389Z,21.63
2018-12-16T10:10:37.152Z,20.33
2018-12-16T10:13:04.932Z,21.20
2018-12-16T10:15:32.753Z,20.47
2018-12-16T10:18:00.650Z,19.93
2018-12-16T10:20:28.484Z,20.23
2018-12-16T10:22:56.207Z,21.30
2018-12-16T10:25:24.560Z,20.83
2018-12-16T10:27:52.418Z,19.93
2018-12-16T10:30:21.475Z,19.60
2018-12-16T10:32:49.225Z,20.67
2018-12-16T10:35:16.939Z,20.20
2018-12-16T10:37:44.715Z,21.63
2018-12-16T10:40:12.487Z,21.57
2018-12-16T10:42:40.321Z,18.70
2018-12-16T10:45:09.305Z,20.87
2018-12-16T10:47:37.235Z,20.80
2018-12-16T10:50:06.071Z,21.53
2018-12-16T10:52:33.848Z,19.60
2018-12-16T10:55:01.653Z,20.20
2018-12-16T10:57:29.501Z,21.07
2018-12-16T10:59:58.327Z,19.57
2018-12-16T11:02:26.129Z,23.00
2018-12-16T11:04:53.985Z,22.00
2018-12-16T11:07:21.760Z,20.83
2018-12-16T11:09:49.837Z,22.73
2018-12-16T11:12:17.692Z,22.60
2018-12-16T11:14:47.874Z,21.80
2018-12-16T11:17:15.890Z,20.93
2018-12-16T11:19:43.660Z,20.83
2018-12-16T11:22:11.552Z,23.67
2018-12-16T11:24:39.358Z,23.70
2018-12-16T11:27:07.202Z,22.67
2018-12-16T11:29:35.025Z,23.93
2018-12-16T11:32:02.842Z,22.63
2018-12-16T11:34:30.641Z,20.87
2018-12-16T11:36:58.455Z,22.60
2018-12-16T11:39:26.238Z,22.37
2018-12-16T11:41:54.150Z,22.30
2018-12-16T11:44:22.033Z,22.57
2018-12-16T11:46:49.779Z,21.43
2018-12-16T11:49:17.641Z,21.97
2018-12-16T11:51:45.586Z,23.30
2018-12-16T11:54:13.387Z,22.83
2018-12-16T11:56:41.149Z,20.90
2018-12-16T11:59:08.917Z,20.67
2018-12-16T12:01:36.862Z,19.23
2018-12-16T12:04:05.624Z,21.70
2018-12-16T12:06:33.714Z,19.97
2018-12-16T12:09:01.541Z,19.40
2018-12-16T12:11:29.264Z,21.30
2018-12-16T12:13:57.030Z,20.23
2018-12-16T12:16:25.104Z,20.37
2018-12-16T12:19:01.221Z,19.77
2018-12-16T12:21:29.139Z,21.33
2018-12-16T12:23:57.020Z,19.90
2018-12-16T12:26:24.851Z,19.00
2018-12-16T12:28:52.585Z,18.10
2018-12-16T12:31:20.418Z,19.17
2018-12-16T12:33:48.196Z,19.10
2018-12-16T12:36:15.980Z,20.03
2018-12-16T12:38:43.751Z,20.10
2018-12-16T12:41:11.650Z,17.33
2018-12-16T12:43:39.460Z,20.37
2018-12-16T12:46:07.216Z,20.63
2018-12-16T12:48:35.138Z,19.80
2018-12-16T12:51:03.405Z,18.80
2018-12-16T12:53:36.262Z,20.20
2018-12-16T12:56:04.080Z,20.73
2018-12-16T12:58:31.953Z,19.20
2018-12-16T13:00:59.782Z,17.53
2018-12-16T13:03:27.575Z,20.57
2018-12-16T13:05:55.426Z,18.30
2018-12-16T13:08:23.188Z,18.27
2018-12-16T13:10:50.997Z,19.77
2018-12-16T13:13:18.789Z,21.53
2018-12-16T13:15:46.491Z,19.83
2018-12-16T13:18:14.249Z,17.07
2018-12-16T13:20:42.005Z,18.47
2018-12-16T13:23:09.770Z,17.97
2018-12-16T13:25:48.753Z,18.70
2018-12-16T13:28:16.559Z,20.50
2018-12-16T13:30:44.341Z,22.00
2018-12-16T13:33:12.940Z,19.27
2018-12-16T13:35:40.700Z,19.83
2018-12-16T13:38:08.463Z,21.43
2018-12-16T13:40:36.231Z,19.97
2018-12-16T13:43:05.049Z,21.83
2018-12-16T13:45:32.895Z,19.33
2018-12-16T13:48:00.728Z,20.43
2018-12-16T13:50:28.958Z,19.53
2018-12-16T13:52:56.809Z,20.83
2018-12-16T13:55:24.549Z,20.53
2018-12-16T13:57:52.642Z,19.23
2018-12-16T14:00:20.462Z,19.10
2018-12-16T14:02:49.926Z,21.00
2018-12-16T14:05:17.969Z,21.17
2018-12-16T14:07:45.722Z,21.40
2018-12-16T14:10:13.570Z,21.50
2018-12-16T14:12:41.294Z,20.83
2018-12-16T14:15:09.861Z,21.53
2018-12-16T14:17:43.286Z,20.47
2018-12-16T14:20:11.089Z,20.73
2018-12-16T14:22:39.467Z,22.03
2018-12-16T14:25:13.820Z,21.30
2018-12-16T14:27:43.420Z,21.83
2018-12-16T14:30:11.646Z,24.47
2018-12-16T14:33:05.708Z,20.43
2018-12-16T14:35:39.399Z,22.13
2018-12-16T14:38:10.124Z,21.20
2018-12-16T14:40:38.533Z,21.93
2018-12-16T14:43:06.294Z,19.40
2018-12-16T14:45:34.028Z,24.47
2018-12-16T14:48:01.805Z,22.57
2018-12-16T14:50:29.731Z,20.23
2018-12-16T14:52:57.468Z,21.67
2018-12-16T14:55:25.360Z,21.37
2018-12-16T14:57:54.055Z,23.53
2018-12-16T15:00:22.022Z,19.90
2018-12-16T15:02:49.838Z,20.00
2018-12-16T15:05:17.611Z,22.20
2018-12-16T15:07:45.393Z,19.83
2018-12-16T15:10:13.152Z,21.73
2018-12-16T15:12:40.948Z,21.70
2018-12-16T15:15:08.828Z,22.33
2018-12-16T15:17:42.731Z,20.70
2018-12-16T15:20:07.624Z,21.93
2018-12-16T15:22:35.956Z,21.17
2018-12-16T15:25:04.279Z,21.73
2018-12-16T15:27:32.022Z,23.60
2018-12-16T15:29:59.747Z,20.37
2018-12-16T15:32:27.728Z,23.27
2018-12-16T15:34:55.452Z,25.00
2018-12-16T15:37:23.213Z,23.90
2018-12-16T15:39:51.729Z,21.70
2018-12-16T15:42:20.195Z,22.07
2018-12-16T15:44:47.940Z,22.03
2018-12-16T15:47:15.825Z,24.87
2018-12-16T15:49:43.621Z,23.37
2018-12-16T15:52:12.502Z,27.33
2018-12-16T15:54:40.193Z,24.77
2018-12-16T15:57:07.899Z,22.70
2018-12-16T15:59:35.763Z,21.33
2018-12-16T16:02:03.519Z,21.80
2018-12-16T16:04:31.228Z,24.73
2018-12-16T16:06:58.979Z,21.27
2018-12-16T16:09:26.694Z,23.57
2018-12-16T16:11:54.508Z,22.57
2018-12-16T16:14:22.314Z,22.13
2018-12-16T16:16:50.079Z,20.10
2018-12-16T16:19:17.879Z,21.27
2018-12-16T16:21:45.717Z,18.17
2018-12-16T16:24:13.454Z,17.57
2018-12-16T16:26:41.198Z,22.33
2018-12-16T16:29:08.939Z,22.07
2018-12-16T16:31:36.701Z,19.47
2018-12-16T16:34:04.451Z,21.67
2018-12-16T16:36:32.231Z,21.00
2018-12-16T16:38:59.950Z,23.23
2018-12-16T16:41:27.767Z,21.17
2018-12-16T16:43:55.566Z,21.60
2018-12-16T16:46:23.460Z,21.83
2018-12-16T16:48:51.856Z,21.57
2018-12-16T16:51:19.582Z,19.93
2018-12-16T16:53:47.362Z,20.77
2018-12-16T16:56:15.152Z,19.30
2018-12-16T16:58:42.908Z,19.23
2018-12-16T17:01:10.675Z,21.67
2018-12-16T17:03:38.441Z,20.07
2018-12-16T17:06:06.256Z,22.17
2018-12-16T17:08:34.008Z,22.57
2018-12-16T17:11:01.888Z,21.77
2018-12-16T17:13:29.609Z,21.77
2018-12-16T17:15:57.326Z,22.80
2018-12-16T17:18:25.117Z,21.07
2018-12-16T17:20:53.078Z,19.63
2018-12-16T17:23:20.873Z,21.40
2018-12-16T17:25:48.684Z,23.53
2018-12-16T17:28:16.411Z,22.47
2018-12-16T17:30:44.208Z,21.77
2018-12-16T17:33:15.589Z,21.50
2018-12-16T17:35:45.395Z,22.93
2018-12-16T17:38:13.174Z,22.97
2018-12-16T17:40:40.995Z,21.63
2018-12-16T17:43:09.833Z,23.13
2018-12-16T17:45:38.362Z,22.27
2018-12-16T17:48:06.236Z,20.90
2018-12-16T17:50:34.371Z,22.33
2018-12-16T17:53:02.383Z,24.00
2018-12-16T17:55:30.333Z,21.20
2018-12-16T17:57:58.147Z,19.40
2018-12-16T18:00:26.370Z,21.07
2018-12-16T18:02:54.198Z,20.13
2018-12-16T18:05:21.982Z,19.97
2018-12-16T18:07:49.743Z,19.30
2018-12-16T18:10:17.508Z,18.33
2018-12-16T18:12:45.362Z,20.43
2018-12-16T18:15:13.190Z,21.47
2018-12-16T18:17:41.739Z,20.47
2018-12-16T18:20:09.761Z,19.33
2018-12-16T18:22:38.139Z,19.57
2018-12-16T18:25:06.113Z,18.87
2018-12-16T18:27:33.844Z,18.57
2018-12-16T18:30:01.596Z,18.90
2018-12-16T18:32:29.391Z,18.70
2018-12-16T18:34:57.189Z,18.40
2018-12-16T18:37:24.887Z,18.27
2018-12-16T18:39:52.668Z,19.30
2018-12-16T18:42:20.738Z,16.63
2018-12-16T18:44:48.494Z,18.10
2018-12-16T18:47:16.248Z,18.43
2018-12-16T18:49:43.965Z,18.57
2018-12-16T18:52:11.763Z,17.50
2018-12-16T18:54:39.464Z,17.63
2018-12-16T18:57:07.562Z,16.87
2018-12-16T18:59:35.418Z,15.90
2018-12-16T19:02:03.295Z,16.03
2018-12-16T19:04:31.106Z,15.10
2018-12-16T19:06:58.882Z,15.73
2018-12-16T19:09:26.670Z,13.90
2018-12-16T19:11:54.439Z,14.47
2018-12-16T19:14:22.413Z,14.33
2018-12-16T19:16:50.367Z,16.90
2018-12-16T19:19:18.387Z,14.80
2018-12-16T19:21:46.084Z,14.13
2018-12-16T19:24:13.775Z,14.17
2018-12-16T19:26:49.256Z,15.70
2018-12-16T19:29:22.793Z,14.13
2018-12-16T19:31:50.617Z,16.97
2018-12-16T19:34:18.702Z,15.40
2018-12-16T19:36:46.628Z,15.13
2018-12-16T19:39:14.370Z,15.33
2018-12-16T19:41:42.151Z,14.40
2018-12-16T19:44:13.205Z,14.97
2018-12-16T19:46:40.960Z,14.30
2018-12-16T19:49:09.632Z,16.27
2018-12-16T19:51:37.438Z,12.30
2018-12-16T19:54:05.240Z,14.30
2018-12-16T19:56:32.995Z,15.03
2018-12-16T19:59:01.429Z,12.60
2018-12-16T20:01:29.269Z,14.97
2018-12-16T20:04:19.403Z,14.20
2018-12-16T20:06:48.306Z,13.50
2018-12-16T20:09:16.291Z,12.73
2018-12-16T20:11:44.213Z,12.83
2018-12-16T20:14:12.395Z,11.57
2018-12-16T20:16:40.195Z,13.17
2018-12-16T20:19:08.120Z,11.67
2018-12-16T20:21:35.907Z,12.63
2018-12-16T20:24:04.381Z,12.63
2018-12-16T20:26:32.108Z,11.20
2018-12-16T20:28:59.840Z,12.10
2018-12-16T20:31:27.584Z,12.77
2018-12-16T20:33:55.294Z,11.53
2018-12-16T20:36:23.048Z,10.67
2018-12-16T20:38:50.793Z,11.87
2018-12-16T20:41:18.584Z,11.60
2018-12-16T20:43:46.420Z,11.50
2018-12-16T20:46:14.240Z,11.17
2018-12-16T20:48:42.013Z,10.80
2018-12-16T20:51:09.810Z,9.80
2018-12-16T20:53:37.585Z,8.13
2018-12-16T20:56:05.427Z,7.93
2018-12-16T20:58:33.121Z,7.53
2018-12-16T21:01:00.826Z,7.60
2018-12-16T21:03:28.591Z,6.53
2018-12-16T21:05:56.325Z,8.17
2018-12-16T21:08:24.070Z,6.90
2018-12-16T21:10:51.995Z,6.57
2018-12-16T21:13:25.358Z,7.30
2018-12-16T21:15:58.562Z,7.13
2018-12-16T21:18:28.848Z,8.10
2018-12-16T21:20:56.581Z,8.40
2018-12-16T21:23:25.150Z,7.13
2018-12-16T21:25:53.566Z,6.97
2018-12-16T21:28:21.841Z,9.23
2018-12-16T21:30:54.213Z,7.80
2018-12-16T21:33:21.940Z,7.67
2018-12-16T21:35:49.717Z,7.80
2018-12-16T21:38:17.542Z,7.70
2018-12-16T21:40:45.318Z,7.70
2018-12-16T21:43:13.053Z,7.80
2018-12-16T21:45:40.769Z,8.50
2018-12-16T21:48:08.497Z,8.80
2018-12-16T21:50:36.216Z,8.37
2018-12-16T21:53:03.933Z,9.27
2018-12-16T21:55:31.713Z,8.40
2018-12-16T21:57:59.426Z,10.40
2018-12-16T22:00:27.128Z,8.40
2018-12-16T22:02:54.842Z,8.87
2018-12-16T22:05:31.831Z,9.13
2018-12-16T22:07:59.579Z,8.90
2018-12-16T22:10:27.281Z,10.63
2018-12-16T22:12:54.998Z,11.67
2018-12-16T22:15:22.701Z,9.57
2018-12-16T22:17:50.436Z,10.27
2018-12-16T22:20:18.209Z,10.90
2018-12-16T22:22:46.037Z,12.17
2018-12-16T22:25:13.833Z,10.93
2018-12-16T22:27:41.653Z,10.73
2018-12-16T22:30:09.532Z,10.97
2018-12-16T22:32:37.241Z,11.77
2018-12-16T22:35:05.079Z,12.40
2018-12-16T22:37:33.857Z,12.57
2018-12-16T22:40:01.634Z,12.00
2018-12-16T22:42:29.535Z,13.67
2018-12-16T22:44:57.290Z,13.53
2018-12-16T22:47:25.024Z,13.80
2018-12-16T22:49:52.796Z,11.93
2018-12-16T22:52:20.550Z,11.83
2018-12-16T22:54:48.301Z,13.03
2018-12-16T22:57:16.047Z,16.50
2018-12-16T22:59:43.833Z,13.13
2018-12-16T23:02:11.581Z,13.07
2018-12-16T23:04:39.312Z,13.80
2018-12-16T23:07:07.085Z,14.37
2018-12-16T23:09:34.810Z,12.40
2018-12-16T23:12:02.605Z,13.67
2018-12-16T23:14:30.377Z,14.60
2018-12-16T23:16:58.078Z,13.00
2018-12-16T23:19:25.816Z,14.03
2018-12-16T23:21:53.561Z,13.90
2018-12-16T23:24:21.845Z,14.30
2018-12-16T23:26:49.611Z,15.23
2018-12-16T23:29:17.339Z,15.07
2018-12-16T23:31:45.071Z,16.33
2018-12-16T23:34:12.834Z,14.67
2018-12-16T23:36:40.642Z,15.67
2018-12-16T23:39:10.301Z,13.80
2018-12-16T23:41:38.023Z,14.60
2018-12-16T23:44:05.776Z,14.67
2018-12-16T23:46:33.547Z,14.00
2018-12-16T23:49:01.292Z,14.47
2018-12-16T23:51:29.024Z,13.57
2018-12-16T23:53:56.765Z,14.60
2018-12-16T23:56:24.508Z,14.40
2018-12-16T23:58:52.264Z,13.20
